Rewey, WI (53580)

11:39 AM CST die 10o February, anno 2016 (GMT -0600)
Mound View Park | | Change Station
CLOSE
Current Station
Personal Weather Stations
Location: Platteville, WI
Elevation: 1001 ft
Nearby Weather Stations

Elev 1001 ft 42.74 °N, 90.46 °W | Updated 11 minutes ago

Serena
Serena
10.9 °F
Feels Like 11 °F
N
2.0
Ventus Variabilis Ventus from Inter Aquilonem et Zephyrus
Gusts 6.0 mph

Hodie
High -- | Low -- °F
--% Chance of Precip.
Yesterday
High -- | Low -- °F
Precip. -- in
Pressio 30.04 in
Visibilitas 10.0 milia passuum
Clouds Serena
Frigus Venti 11 °F
Frigus in quo Ros apparet 1 °F
Umor 63%
Rainfall 0.00 in
Snow Depth Not available.
7:06 AM 5:26 PM
Waxing Crescent, 6% visible
METAR KMRJ 101715Z AUTO 31007KT 10SM CLR M12/M18 A3004 RMK AO2
Pressio 30.04 in
Visibilitas 10.0 milia passuum
Clouds Serena
Frigus Venti 11 °F
Frigus in quo Ros apparet 1 °F
Umor 63%
Rainfall 0.00 in
Snow Depth Not available.
7:06 AM 5:26 PM
Waxing Crescent, 6% visible
METAR KMRJ 101715Z AUTO 31007KT 10SM CLR M12/M18 A3004 RMK AO2

10-Day Weather Forecast

Almanac

Astronomy

Feb. 10, 2016 Rise Set
Actual Time
Civil Twilight
Nautical Twilight
Astronomical Twilight
Moon
Length Of Visible Light
Length of Day
Tomorrow will be .
, % of the Moon is Illuminated

Today's Extremes

State Highs State Lows

Community

WunderPhotos

Upload Photos

1,891,898 photos uploaded!

WunderBlog® & News

Nearby

Air Quality

  Air Quality AQ Index Pollutant
Not available.

Snow Depth

Station Depth Elevation

Earthquake Activity

City Distance Mag. Time & Date
Minimum magnitude displayed is 2.5.

Coastal Water Temperatures

Locus Calor

Stations

Nearby Weather Stations

Station Location Temp Frigus Venti Frigus in quo Ros apparet Umor Ventus Precip. Elev Renovata Type
                   

Watches & Warnings

There are currently no watches in effect.